createdAt,value
2019-03-18T00:00:28.868Z,4.61
2019-03-18T00:01:28.905Z,4.58
2019-03-18T00:02:28.974Z,4.46
2019-03-18T00:03:28.991Z,4.47
2019-03-18T00:04:29.054Z,4.57
2019-03-18T00:05:29.104Z,4.52
2019-03-18T00:06:29.120Z,4.50
2019-03-18T00:07:29.167Z,4.43
2019-03-18T00:08:29.199Z,4.36
2019-03-18T00:09:29.290Z,4.36
2019-03-18T00:10:29.308Z,4.37
2019-03-18T00:11:29.335Z,4.26
2019-03-18T00:12:29.370Z,4.26
2019-03-18T00:13:29.422Z,4.33
2019-03-18T00:14:29.464Z,4.32
2019-03-18T00:15:29.521Z,4.29
2019-03-18T00:16:29.587Z,4.33
2019-03-18T00:17:29.590Z,4.33
2019-03-18T00:18:29.628Z,4.36
2019-03-18T00:19:29.667Z,4.32
2019-03-18T00:20:29.776Z,4.42
2019-03-18T00:21:29.754Z,4.43
2019-03-18T00:22:29.816Z,4.32
2019-03-18T00:23:29.846Z,4.42
2019-03-18T00:24:29.881Z,4.37
2019-03-18T00:25:29.940Z,4.40
2019-03-18T00:26:29.964Z,4.40
2019-03-18T00:27:30.007Z,4.37
2019-03-18T00:28:30.050Z,4.39
2019-03-18T00:29:30.161Z,4.40
2019-03-18T00:30:30.164Z,4.42
2019-03-18T00:31:30.175Z,4.34
2019-03-18T00:32:30.219Z,4.43
2019-03-18T00:33:30.260Z,4.43
2019-03-18T00:34:30.309Z,4.37
2019-03-18T00:35:30.366Z,4.34
2019-03-18T00:36:30.385Z,4.36
2019-03-18T00:37:30.424Z,4.51
2019-03-18T00:38:30.466Z,4.47
2019-03-18T00:39:30.510Z,4.61
2019-03-18T00:40:30.574Z,4.67
2019-03-18T00:41:30.622Z,4.69
2019-03-18T00:42:30.698Z,4.76
2019-03-18T00:43:30.726Z,4.76
2019-03-18T00:44:30.719Z,4.84
2019-03-18T00:45:30.774Z,4.83
2019-03-18T00:46:30.900Z,4.86
2019-03-18T00:47:30.857Z,4.95
2019-03-18T00:48:30.891Z,4.99
2019-03-18T00:49:30.931Z,5.10
2019-03-18T00:50:30.976Z,5.16
2019-03-18T00:51:31.038Z,5.22
2019-03-18T00:52:31.059Z,5.23
2019-03-18T00:53:31.110Z,5.28
2019-03-18T00:54:31.143Z,5.27
2019-03-18T00:55:31.190Z,5.23
2019-03-18T00:56:31.262Z,5.28
2019-03-18T00:57:31.272Z,5.32
2019-03-18T00:58:31.311Z,5.34
2019-03-18T00:59:31.353Z,5.34
2019-03-18T01:00:31.396Z,5.45
2019-03-18T01:01:31.458Z,5.53
2019-03-18T01:02:31.504Z,5.52
2019-03-18T01:03:31.524Z,5.53
2019-03-18T01:04:31.572Z,5.43
2019-03-18T01:05:31.615Z,5.50
2019-03-18T01:06:31.670Z,5.34
2019-03-18T01:07:31.695Z,5.38
2019-03-18T01:08:31.741Z,5.46
2019-03-18T01:09:31.781Z,5.46
2019-03-18T01:10:31.823Z,5.50
2019-03-18T01:11:31.884Z,5.52
2019-03-18T01:12:31.908Z,5.48
2019-03-18T01:13:31.951Z,5.63
2019-03-18T01:14:31.994Z,5.56
2019-03-18T01:15:32.032Z,5.59
2019-03-18T01:16:32.097Z,5.59
2019-03-18T01:17:32.148Z,5.55
2019-03-18T01:18:32.193Z,5.56
2019-03-18T01:19:32.205Z,5.59
2019-03-18T01:20:32.254Z,5.57
2019-03-18T01:21:32.292Z,5.64
2019-03-18T01:22:32.355Z,5.60
2019-03-18T01:23:32.380Z,5.49
2019-03-18T01:24:32.420Z,5.56
2019-03-18T01:25:32.519Z,5.63
2019-03-18T01:26:32.502Z,5.63
2019-03-18T01:27:32.569Z,5.60
2019-03-18T01:28:32.598Z,5.57
2019-03-18T01:29:32.633Z,5.63
2019-03-18T01:30:32.679Z,5.57
2019-03-18T01:31:32.714Z,5.52
2019-03-18T01:32:32.858Z,5.50
2019-03-18T01:33:32.811Z,5.37
2019-03-18T01:34:32.853Z,5.32
2019-03-18T01:35:32.892Z,5.28
2019-03-18T01:36:32.933Z,5.31
2019-03-18T01:37:32.999Z,5.25
2019-03-18T01:38:33.017Z,5.27
2019-03-18T01:39:33.076Z,5.31
2019-03-18T01:40:33.100Z,5.28
2019-03-18T01:41:33.147Z,5.34
2019-03-18T01:42:33.207Z,5.27
2019-03-18T01:43:33.231Z,5.25
2019-03-18T01:44:33.271Z,5.25
2019-03-18T01:45:40.608Z,5.27
2019-03-18T01:46:33.359Z,5.23
2019-03-18T01:47:33.421Z,5.30
2019-03-18T01:48:33.464Z,5.28
2019-03-18T01:49:33.487Z,5.40
2019-03-18T01:50:33.538Z,5.45
2019-03-18T01:51:33.574Z,5.56
2019-03-18T01:52:33.614Z,5.57
2019-03-18T01:53:33.672Z,5.50
2019-03-18T01:54:33.699Z,5.52
2019-03-18T01:55:33.749Z,5.49
2019-03-18T01:56:33.797Z,5.52
2019-03-18T01:57:33.828Z,5.45
2019-03-18T01:58:33.907Z,5.32
2019-03-18T01:59:33.916Z,5.40
2019-03-18T02:00:33.954Z,5.40
2019-03-18T02:01:33.999Z,5.32
2019-03-18T02:02:34.042Z,5.32
2019-03-18T02:03:34.102Z,5.30
2019-03-18T02:04:34.126Z,5.31
2019-03-18T02:05:34.169Z,5.31
2019-03-18T02:06:34.213Z,5.38
2019-03-18T02:07:34.254Z,5.31
2019-03-18T02:08:34.315Z,5.35
2019-03-18T02:09:34.341Z,5.28
2019-03-18T02:10:34.385Z,5.25
2019-03-18T02:11:34.424Z,5.22
2019-03-18T02:12:34.468Z,5.28
2019-03-18T02:13:34.532Z,5.40
2019-03-18T02:14:34.572Z,5.20
2019-03-18T02:15:34.592Z,5.31
2019-03-18T02:16:34.728Z,5.23
2019-03-18T02:17:34.691Z,5.25
2019-03-18T02:18:34.728Z,5.20
2019-03-18T02:19:34.786Z,5.22
2019-03-18T02:20:34.806Z,5.27
2019-03-18T02:21:34.854Z,5.22
2019-03-18T02:22:34.896Z,5.04
2019-03-18T02:23:34.994Z,5.10
2019-03-18T02:24:35.012Z,5.12
2019-03-18T02:25:35.026Z,5.19
2019-03-18T02:26:35.082Z,5.25
2019-03-18T02:27:35.102Z,5.25
2019-03-18T02:28:35.152Z,5.22
2019-03-18T02:29:35.212Z,5.23
2019-03-18T02:30:35.258Z,5.27
2019-03-18T02:31:35.278Z,5.28
2019-03-18T02:32:35.345Z,5.25
2019-03-18T02:33:35.364Z,5.23
2019-03-18T02:34:35.428Z,5.23
2019-03-18T02:35:35.481Z,5.20
2019-03-18T02:36:35.496Z,5.16
2019-03-18T02:37:35.555Z,5.28
2019-03-18T02:38:35.581Z,5.19
2019-03-18T02:39:35.643Z,5.19
2019-03-18T02:40:35.690Z,5.23
2019-03-18T02:41:35.713Z,5.19
2019-03-18T02:42:35.746Z,5.25
2019-03-18T02:43:35.787Z,5.20
2019-03-18T02:44:35.872Z,5.20
2019-03-18T02:45:35.902Z,5.20
2019-03-18T02:46:35.926Z,5.17
2019-03-18T02:47:35.959Z,5.14
2019-03-18T02:48:36.001Z,5.04
2019-03-18T02:49:36.046Z,4.98
2019-03-18T02:50:36.102Z,5.10
2019-03-18T02:51:36.128Z,5.07
2019-03-18T02:52:36.183Z,5.13
2019-03-18T02:53:36.224Z,5.07
2019-03-18T02:54:36.258Z,5.16
2019-03-18T02:55:36.330Z,5.14
2019-03-18T02:56:36.346Z,5.10
2019-03-18T02:57:36.385Z,5.07
2019-03-18T02:58:36.426Z,4.98
2019-03-18T02:59:36.485Z,4.95
2019-03-18T03:00:36.548Z,4.98
2019-03-18T03:01:36.558Z,4.92
2019-03-18T03:02:36.595Z,4.94
2019-03-18T03:03:37.098Z,5.01
2019-03-18T03:04:36.682Z,4.95
2019-03-18T03:05:36.758Z,4.95
2019-03-18T03:06:36.771Z,5.09
2019-03-18T03:07:36.838Z,5.07
2019-03-18T03:08:36.854Z,5.14
2019-03-18T03:09:36.934Z,5.25
2019-03-18T03:10:37.387Z,5.16
2019-03-18T03:11:36.991Z,5.27
2019-03-18T03:12:37.022Z,5.28
2019-03-18T03:13:37.075Z,5.25
2019-03-18T03:14:37.142Z,5.40
2019-03-18T03:15:37.148Z,5.32
2019-03-18T03:16:37.217Z,5.41
2019-03-18T03:17:37.241Z,5.37
2019-03-18T03:18:37.283Z,5.31
2019-03-18T03:19:37.327Z,5.16
2019-03-18T03:20:37.369Z,5.20
2019-03-18T03:21:37.509Z,5.16
2019-03-18T03:22:37.446Z,5.05
2019-03-18T03:23:37.493Z,4.86
2019-03-18T03:24:37.532Z,4.80
2019-03-18T03:25:37.584Z,4.72
2019-03-18T03:26:37.647Z,4.70
2019-03-18T03:27:37.684Z,4.70
2019-03-18T03:28:37.796Z,4.64
2019-03-18T03:29:37.746Z,4.64
2019-03-18T03:30:37.801Z,4.65
2019-03-18T03:31:37.849Z,4.62
2019-03-18T03:32:37.873Z,4.59
2019-03-18T03:33:37.917Z,4.54
2019-03-18T03:34:37.997Z,4.52
2019-03-18T03:35:38.032Z,4.46
2019-03-18T03:36:38.058Z,4.58
2019-03-18T03:37:38.090Z,4.65
2019-03-18T03:38:38.129Z,4.58
2019-03-18T03:39:38.167Z,4.69
2019-03-18T03:40:38.216Z,4.55
2019-03-18T03:41:38.277Z,4.50
2019-03-18T03:42:38.351Z,4.51
2019-03-18T03:43:38.340Z,4.52
2019-03-18T03:44:38.381Z,4.43
2019-03-18T03:45:38.426Z,4.52
2019-03-18T03:46:43.734Z,4.51
2019-03-18T03:47:38.530Z,4.57
2019-03-18T03:48:38.558Z,4.57
2019-03-18T03:49:38.592Z,4.51
2019-03-18T03:50:38.635Z,4.43
2019-03-18T03:51:38.746Z,4.50
2019-03-18T03:52:38.756Z,4.52
2019-03-18T03:53:38.762Z,4.44
2019-03-18T03:54:38.807Z,4.43
2019-03-18T03:55:38.847Z,4.51
2019-03-18T03:56:38.897Z,4.37
2019-03-18T03:57:38.957Z,4.40
2019-03-18T03:58:39.089Z,4.33
2019-03-18T03:59:39.012Z,4.32
2019-03-18T04:00:39.053Z,4.26
2019-03-18T04:01:39.102Z,4.33
2019-03-18T04:02:39.158Z,4.37
2019-03-18T04:03:39.226Z,4.43
2019-03-18T04:04:39.226Z,4.40
2019-03-18T04:05:39.353Z,4.42
2019-03-18T04:06:39.315Z,4.52
2019-03-18T04:07:39.361Z,4.50
2019-03-18T04:08:39.422Z,4.55
2019-03-18T04:09:39.447Z,4.51
2019-03-18T04:10:39.478Z,4.47
2019-03-18T04:11:39.521Z,4.51
2019-03-18T04:12:39.571Z,4.65
2019-03-18T04:13:39.630Z,4.65
2019-03-18T04:14:39.650Z,4.70
2019-03-18T04:15:39.689Z,4.77
2019-03-18T04:16:39.734Z,4.95
2019-03-18T04:17:39.776Z,5.10
2019-03-18T04:18:39.838Z,5.23
2019-03-18T04:19:39.861Z,5.25
2019-03-18T04:20:39.906Z,5.19
2019-03-18T04:21:39.951Z,5.20
2019-03-18T04:22:39.988Z,5.13
2019-03-18T04:23:40.054Z,5.02
2019-03-18T04:24:40.072Z,5.04
2019-03-18T04:25:40.114Z,4.95
2019-03-18T04:26:40.279Z,4.98
2019-03-18T04:27:40.204Z,4.96
2019-03-18T04:28:40.260Z,4.91
2019-03-18T04:29:40.310Z,4.91
2019-03-18T04:30:40.408Z,4.92
2019-03-18T04:31:40.365Z,4.86
2019-03-18T04:32:40.411Z,4.89
2019-03-18T04:33:40.496Z,4.89
2019-03-18T04:34:40.517Z,4.92
2019-03-18T04:35:40.541Z,4.84
2019-03-18T04:36:40.579Z,4.88
2019-03-18T04:37:40.629Z,4.88
2019-03-18T04:38:40.664Z,4.79
2019-03-18T04:39:40.727Z,4.80
2019-03-18T04:40:40.764Z,4.80
2019-03-18T04:41:40.789Z,4.83
2019-03-18T04:42:40.842Z,4.89
2019-03-18T04:43:40.875Z,4.77
2019-03-18T04:44:41.041Z,4.79
2019-03-18T04:45:42.114Z,4.79
2019-03-18T04:46:41.003Z,4.83
2019-03-18T04:47:41.053Z,4.76
2019-03-18T04:48:41.091Z,4.72
2019-03-18T04:49:41.157Z,4.67
2019-03-18T04:50:41.170Z,4.67
2019-03-18T04:51:41.260Z,4.73
2019-03-18T04:52:41.257Z,4.73
2019-03-18T04:53:41.300Z,4.79
2019-03-18T04:54:41.363Z,4.80
2019-03-18T04:55:41.385Z,4.79
2019-03-18T04:56:41.427Z,4.95
2019-03-18T04:57:41.476Z,4.98
2019-03-18T04:58:41.521Z,4.91
2019-03-18T04:59:41.574Z,4.94
2019-03-18T05:00:41.618Z,4.99
2019-03-18T05:01:41.641Z,4.99
2019-03-18T05:02:41.690Z,5.01
2019-03-18T05:03:41.726Z,4.99
2019-03-18T05:04:41.785Z,5.04
2019-03-18T05:05:41.833Z,5.05
2019-03-18T05:06:41.852Z,5.07
2019-03-18T05:07:41.899Z,5.05
2019-03-18T05:08:41.941Z,5.10
2019-03-18T05:09:41.977Z,5.04
2019-03-18T05:10:42.040Z,5.19
2019-03-18T05:11:42.070Z,5.22
2019-03-18T05:12:42.107Z,5.14
2019-03-18T05:13:42.250Z,5.19
2019-03-18T05:14:42.195Z,5.16
2019-03-18T05:15:42.258Z,5.25
2019-03-18T05:16:42.281Z,5.20
2019-03-18T05:17:42.318Z,5.28
2019-03-18T05:18:42.383Z,5.20
2019-03-18T05:19:42.401Z,5.20
2019-03-18T05:20:42.471Z,5.22
2019-03-18T05:21:42.590Z,5.23
2019-03-18T05:22:42.526Z,5.25
2019-03-18T05:23:42.577Z,5.23
2019-03-18T05:24:42.617Z,5.22
2019-03-18T05:25:42.684Z,5.22
2019-03-18T05:26:42.699Z,5.22
2019-03-18T05:27:42.749Z,5.23
2019-03-18T05:28:42.851Z,5.25
2019-03-18T05:29:42.837Z,5.22
2019-03-18T05:30:42.893Z,5.20
2019-03-18T05:31:42.917Z,5.22
2019-03-18T05:32:42.958Z,5.23
2019-03-18T05:33:43.023Z,5.23
2019-03-18T05:34:43.042Z,5.12
2019-03-18T05:35:43.135Z,5.04
2019-03-18T05:36:43.122Z,5.14
2019-03-18T05:37:43.173Z,5.10
2019-03-18T05:38:43.210Z,5.13
2019-03-18T05:39:43.258Z,5.16
2019-03-18T05:40:43.316Z,5.23
2019-03-18T05:41:43.335Z,5.13
2019-03-18T05:42:43.418Z,5.30
2019-03-18T05:43:43.428Z,5.31
2019-03-18T05:44:43.474Z,5.28
2019-03-18T05:45:43.522Z,5.32
2019-03-18T05:46:43.567Z,5.30
2019-03-18T05:47:43.590Z,5.38
2019-03-18T05:48:43.644Z,5.20
2019-03-18T05:49:43.800Z,5.19
2019-03-18T05:50:43.725Z,5.12
2019-03-18T05:51:43.787Z,4.98
2019-03-18T05:52:43.850Z,4.95
2019-03-18T05:53:43.854Z,4.92
2019-03-18T05:54:43.888Z,4.83
2019-03-18T05:55:43.940Z,4.80
2019-03-18T05:56:43.991Z,4.80
2019-03-18T05:57:44.018Z,4.76
2019-03-18T05:58:44.168Z,4.84
2019-03-18T05:59:44.114Z,4.95
2019-03-18T06:00:44.187Z,4.95
2019-03-18T06:01:44.220Z,4.95
2019-03-18T06:02:46.869Z,4.94
2019-03-18T06:03:44.272Z,4.91
2019-03-18T06:04:44.313Z,4.91
2019-03-18T06:05:44.479Z,5.04
2019-03-18T06:06:44.441Z,4.99
2019-03-18T06:07:44.461Z,4.98
2019-03-18T06:08:44.482Z,4.92
2019-03-18T06:09:44.533Z,4.95
2019-03-18T06:10:44.569Z,4.98
2019-03-18T06:11:44.610Z,4.94
2019-03-18T06:12:44.677Z,4.92
2019-03-18T06:13:44.700Z,4.99
2019-03-18T06:14:44.745Z,4.98
2019-03-18T06:15:44.788Z,5.13
2019-03-18T06:16:44.855Z,5.27
2019-03-18T06:17:52.429Z,5.31
2019-03-18T06:18:44.910Z,5.32
2019-03-18T06:19:45.061Z,5.28
2019-03-18T06:20:45.000Z,5.28
2019-03-18T06:21:45.043Z,5.32
2019-03-18T06:22:45.119Z,5.35
2019-03-18T06:23:45.117Z,5.40
2019-03-18T06:24:45.160Z,5.32
2019-03-18T06:25:45.236Z,5.45
2019-03-18T06:26:45.255Z,5.48
2019-03-18T06:27:45.315Z,5.48
2019-03-18T06:28:45.330Z,5.52
2019-03-18T06:29:45.378Z,5.53
2019-03-18T06:30:45.425Z,5.53
2019-03-18T06:31:45.461Z,5.57
2019-03-18T06:32:45.526Z,5.52
2019-03-18T06:33:45.840Z,5.59
2019-03-18T06:34:45.590Z,5.56
2019-03-18T06:35:45.630Z,5.60
2019-03-18T06:36:45.670Z,5.52
2019-03-18T06:37:45.735Z,5.55
2019-03-18T06:38:45.766Z,5.50
2019-03-18T06:39:45.803Z,5.55
2019-03-18T06:40:45.842Z,5.43
2019-03-18T06:41:45.886Z,5.41
2019-03-18T06:42:45.960Z,5.41
2019-03-18T06:43:45.991Z,5.38
2019-03-18T06:44:46.031Z,5.43
2019-03-18T06:45:46.056Z,5.45
2019-03-18T06:46:46.107Z,5.35
2019-03-18T06:47:46.212Z,5.37
2019-03-18T06:48:46.216Z,5.32
2019-03-18T06:49:46.234Z,5.28
2019-03-18T06:50:46.280Z,5.34
2019-03-18T06:51:46.333Z,5.20
2019-03-18T06:52:46.361Z,5.31
2019-03-18T06:53:46.427Z,5.17
2019-03-18T06:54:46.459Z,5.20
2019-03-18T06:55:46.486Z,5.19
2019-03-18T06:56:46.553Z,5.19
2019-03-18T06:57:46.573Z,5.23
2019-03-18T06:58:46.613Z,5.20
2019-03-18T06:59:46.682Z,5.25
2019-03-18T07:00:46.698Z,5.16
2019-03-18T07:01:46.741Z,5.22
2019-03-18T07:02:46.788Z,5.19
2019-03-18T07:03:46.828Z,5.17
2019-03-18T07:04:46.894Z,5.16
2019-03-18T07:05:46.933Z,5.19
2019-03-18T07:06:46.953Z,5.19
2019-03-18T07:07:46.997Z,5.19
2019-03-18T07:08:47.041Z,5.13
2019-03-18T07:09:47.109Z,5.05
2019-03-18T07:10:47.176Z,5.07
2019-03-18T07:11:47.168Z,5.14
2019-03-18T07:12:47.215Z,5.02
2019-03-18T07:13:47.256Z,5.10
2019-03-18T07:14:47.316Z,5.01
2019-03-18T07:15:47.339Z,4.98
2019-03-18T07:16:47.381Z,5.02
2019-03-18T07:17:47.500Z,4.98
2019-03-18T07:18:47.469Z,5.04
2019-03-18T07:19:47.533Z,5.01
2019-03-18T07:20:47.576Z,5.13
2019-03-18T07:21:47.599Z,5.17
2019-03-18T07:22:47.638Z,5.20
2019-03-18T07:23:47.680Z,5.19
2019-03-18T07:24:47.810Z,5.22
2019-03-18T07:25:47.773Z,5.38
2019-03-18T07:26:47.810Z,5.38
2019-03-18T07:27:47.855Z,5.34
2019-03-18T07:28:47.891Z,5.40
2019-03-18T07:29:47.975Z,5.53
2019-03-18T07:30:47.982Z,5.57
2019-03-18T07:31:48.090Z,5.59
2019-03-18T07:32:48.064Z,5.64
2019-03-18T07:33:48.103Z,5.74
2019-03-18T07:34:48.170Z,5.78
2019-03-18T07:35:48.208Z,5.81
2019-03-18T07:36:48.238Z,5.85
2019-03-18T07:37:48.283Z,5.82
2019-03-18T07:38:48.343Z,5.83
2019-03-18T07:39:48.362Z,5.85
2019-03-18T07:40:48.440Z,5.85
2019-03-18T07:41:48.447Z,5.86
2019-03-18T07:42:48.502Z,5.81
2019-03-18T07:43:48.533Z,5.78
2019-03-18T07:44:48.573Z,5.88
2019-03-18T07:45:48.656Z,5.88
2019-03-18T07:46:48.664Z,5.95
2019-03-18T07:47:48.704Z,5.88
2019-03-18T07:48:48.758Z,5.91
2019-03-18T07:49:48.794Z,5.75
2019-03-18T07:50:48.853Z,5.91
2019-03-18T07:51:48.928Z,5.78
2019-03-18T07:52:48.960Z,5.88
2019-03-18T07:53:48.963Z,5.86
2019-03-18T07:54:49.017Z,5.83
2019-03-18T07:55:49.128Z,5.83
2019-03-18T07:56:49.100Z,5.88
2019-03-18T07:57:49.145Z,5.91
2019-03-18T07:58:49.194Z,5.93
2019-03-18T07:59:49.223Z,6.01
2019-03-18T08:00:49.318Z,6.07
2019-03-18T08:01:49.453Z,6.04
2019-03-18T08:02:49.379Z,6.01
2019-03-18T08:03:49.397Z,6.03
2019-03-18T08:04:49.452Z,6.01
2019-03-18T08:05:49.485Z,6.00
2019-03-18T08:06:49.546Z,6.13
2019-03-18T08:07:49.571Z,6.09
2019-03-18T08:08:49.655Z,6.01
2019-03-18T08:09:49.661Z,5.98
2019-03-18T08:10:49.699Z,6.09
2019-03-18T08:11:49.769Z,6.00
2019-03-18T08:12:49.789Z,6.09
2019-03-18T08:13:49.833Z,6.13
2019-03-18T08:14:49.879Z,6.16
2019-03-18T08:15:49.962Z,6.16
2019-03-18T08:16:49.985Z,6.13
2019-03-18T08:17:50.035Z,6.18
2019-03-18T08:18:50.057Z,6.26
2019-03-18T08:19:50.122Z,6.26
2019-03-18T08:20:50.155Z,6.32
2019-03-18T08:21:50.175Z,6.35
2019-03-18T08:22:50.255Z,6.35
2019-03-18T08:23:50.284Z,6.29
2019-03-18T08:24:50.313Z,6.29
2019-03-18T08:25:50.361Z,6.40
2019-03-18T08:26:50.396Z,6.35
2019-03-18T08:27:50.460Z,6.43
2019-03-18T08:28:50.484Z,6.51
2019-03-18T08:29:50.528Z,6.35
2019-03-18T08:30:50.580Z,6.38
2019-03-18T08:31:50.612Z,6.46
2019-03-18T08:32:50.682Z,6.36
2019-03-18T08:33:50.705Z,6.35
2019-03-18T08:34:50.756Z,6.35
2019-03-18T08:35:50.845Z,6.36
2019-03-18T08:36:50.838Z,6.47
2019-03-18T08:37:50.907Z,6.47
2019-03-18T08:38:50.920Z,6.33
2019-03-18T08:39:50.967Z,6.36
2019-03-18T08:40:51.010Z,6.41
2019-03-18T08:41:51.055Z,6.46
2019-03-18T08:42:51.117Z,6.51
2019-03-18T08:43:51.175Z,6.65
2019-03-18T08:44:51.183Z,6.66
2019-03-18T08:45:51.236Z,6.69
2019-03-18T08:46:51.279Z,6.77
2019-03-18T08:47:51.313Z,6.76
2019-03-18T08:48:55.771Z,6.83
2019-03-18T08:49:51.408Z,6.80
2019-03-18T08:50:51.461Z,6.91
2019-03-18T08:51:51.490Z,6.94
2019-03-18T08:52:51.542Z,6.91
2019-03-18T08:53:51.600Z,7.32
2019-03-18T08:54:51.626Z,7.56
2019-03-18T08:55:51.676Z,7.78
2019-03-18T08:56:51.711Z,8.33
2019-03-18T08:57:51.779Z,9.39
2019-03-18T08:58:51.817Z,10.39
2019-03-18T08:59:51.852Z,10.17
2019-03-18T09:00:51.897Z,9.89
2019-03-18T09:01:51.941Z,9.38
2019-03-18T09:02:52.013Z,9.31
2019-03-18T09:03:52.068Z,9.48
2019-03-18T09:04:52.069Z,9.30
2019-03-18T09:05:52.114Z,9.50
2019-03-18T09:06:52.162Z,9.91
2019-03-18T09:07:52.206Z,10.24
2019-03-18T09:08:52.298Z,10.92
2019-03-18T09:09:52.306Z,10.66
2019-03-18T09:10:52.364Z,10.55
2019-03-18T09:11:52.408Z,11.14
2019-03-18T09:12:52.449Z,11.14
2019-03-18T09:13:52.508Z,11.44
2019-03-18T09:14:52.535Z,11.09
2019-03-18T09:15:52.581Z,10.65
2019-03-18T09:16:52.627Z,10.15
2019-03-18T09:17:52.681Z,9.64
2019-03-18T09:18:52.762Z,9.34
2019-03-18T09:19:52.802Z,9.05
2019-03-18T09:20:52.826Z,9.39
2019-03-18T09:21:52.870Z,9.81
2019-03-18T09:22:52.915Z,9.93
2019-03-18T09:23:52.973Z,9.83
2019-03-18T09:24:53.034Z,9.56
2019-03-18T09:25:53.061Z,9.50
2019-03-18T09:27:01.985Z,9.39
2019-03-18T09:27:53.148Z,9.35
2019-03-18T09:28:53.272Z,9.38
2019-03-18T09:29:53.262Z,9.43
2019-03-18T09:30:53.291Z,9.42
2019-03-18T09:31:53.336Z,9.52
2019-03-18T09:32:53.388Z,9.64
2019-03-18T09:33:53.431Z,9.60
2019-03-18T09:34:54.782Z,9.66
2019-03-18T09:35:53.525Z,9.83
2019-03-18T09:36:53.587Z,10.03
2019-03-18T09:37:53.625Z,10.28
2019-03-18T09:38:53.675Z,10.63
2019-03-18T09:39:53.831Z,10.89
2019-03-18T09:40:53.780Z,11.36
2019-03-18T09:41:53.816Z,11.64
2019-03-18T09:42:53.869Z,12.09
2019-03-18T09:43:53.938Z,12.34
2019-03-18T09:44:53.981Z,12.51
2019-03-18T09:45:54.601Z,12.38
2019-03-18T09:46:54.054Z,12.19
2019-03-18T09:47:56.096Z,12.04
2019-03-18T09:48:54.149Z,11.85
2019-03-18T09:49:54.233Z,12.12
2019-03-18T09:50:54.270Z,12.12
2019-03-18T09:51:54.301Z,12.44
2019-03-18T09:52:54.355Z,12.63
2019-03-18T09:53:54.410Z,12.75
2019-03-18T09:54:54.446Z,12.81
2019-03-18T09:55:54.525Z,12.93
2019-03-18T09:56:54.545Z,13.04
2019-03-18T09:57:54.612Z,12.75
2019-03-18T09:58:54.647Z,12.63
2019-03-18T09:59:54.697Z,12.23
2019-03-18T10:00:55.455Z,12.27
2019-03-18T10:01:54.797Z,12.39
2019-03-18T10:02:54.843Z,12.44
2019-03-18T10:03:54.892Z,12.70
2019-03-18T10:04:54.945Z,12.99
2019-03-18T10:05:55.020Z,12.56
2019-03-18T10:06:55.057Z,12.15
2019-03-18T10:07:55.099Z,12.11
2019-03-18T10:08:55.146Z,12.11
2019-03-18T10:09:55.193Z,12.38
2019-03-18T10:10:55.280Z,12.81
2019-03-18T10:11:55.313Z,13.12
2019-03-18T10:12:55.344Z,13.33
2019-03-18T10:13:55.403Z,13.56
2019-03-18T10:14:55.444Z,13.69
2019-03-18T10:15:55.535Z,13.62
2019-03-18T10:16:55.544Z,13.33
2019-03-18T10:17:55.595Z,13.49
2019-03-18T10:18:55.655Z,13.71
2019-03-18T10:19:55.698Z,13.51
2019-03-18T10:20:55.772Z,13.69
2019-03-18T10:21:55.845Z,13.79
2019-03-18T10:22:55.855Z,13.80
2019-03-18T10:23:55.905Z,14.07
2019-03-18T10:24:55.960Z,14.10
2019-03-18T10:25:56.007Z,14.09
2019-03-18T10:26:56.080Z,13.91
2019-03-18T10:27:56.106Z,13.52
2019-03-18T10:28:56.156Z,13.62
2019-03-18T10:29:56.214Z,13.56
2019-03-18T10:30:56.262Z,13.46
2019-03-18T10:31:56.352Z,13.14
2019-03-18T10:32:56.377Z,12.84
2019-03-18T10:33:56.416Z,12.54
2019-03-18T10:34:56.463Z,12.23
2019-03-18T10:35:56.521Z,11.87
2019-03-18T10:36:56.596Z,11.57
2019-03-18T10:37:56.619Z,11.46
2019-03-18T10:38:56.672Z,11.25
2019-03-18T10:39:56.720Z,11.21
2019-03-18T10:40:59.482Z,11.06
2019-03-18T10:41:56.857Z,10.81
2019-03-18T10:42:56.877Z,10.76
2019-03-18T10:43:56.912Z,10.84
2019-03-18T10:44:56.980Z,10.76
2019-03-18T10:45:57.012Z,10.59
2019-03-18T10:46:57.096Z,10.43
2019-03-18T10:47:57.112Z,10.44
2019-03-18T10:48:57.162Z,10.44
2019-03-18T10:49:57.216Z,10.36
2019-03-18T10:50:57.259Z,10.34
2019-03-18T10:51:57.365Z,10.34
2019-03-18T10:52:57.382Z,10.32
2019-03-18T10:53:57.441Z,10.14
2019-03-18T10:54:57.499Z,10.07
2019-03-18T10:56:07.264Z,10.09
2019-03-18T10:56:57.597Z,10.03
2019-03-18T10:57:57.620Z,9.93
2019-03-18T10:58:57.654Z,10.10
2019-03-18T10:59:57.693Z,9.83
2019-03-18T11:00:57.742Z,9.79
2019-03-18T11:01:57.795Z,9.96
2019-03-18T11:02:57.863Z,9.89
2019-03-18T11:03:57.968Z,9.93
2019-03-18T11:04:57.940Z,9.82
2019-03-18T11:05:57.983Z,9.88
2019-03-18T11:06:58.033Z,9.70
2019-03-18T11:07:58.105Z,9.73
2019-03-18T11:08:58.128Z,9.75
2019-03-18T11:09:58.185Z,9.67
2019-03-18T11:10:58.299Z,9.67
2019-03-18T11:11:58.280Z,9.66
2019-03-18T11:12:58.338Z,9.70
2019-03-18T11:13:58.367Z,9.68
2019-03-18T11:14:58.423Z,9.78
2019-03-18T11:15:58.458Z,9.82
2019-03-18T11:16:58.508Z,9.83
2019-03-18T11:17:58.597Z,9.76
2019-03-18T11:18:58.616Z,9.71
2019-03-18T11:19:59.046Z,9.78
2019-03-18T11:20:58.699Z,9.86
2019-03-18T11:21:58.746Z,9.85
2019-03-18T11:22:58.831Z,9.93
2019-03-18T11:23:58.838Z,10.63
2019-03-18T11:24:58.888Z,10.86
2019-03-18T11:25:58.934Z,10.88
2019-03-18T11:26:59.002Z,10.89
2019-03-18T11:27:59.058Z,10.80
2019-03-18T11:28:59.110Z,10.78
2019-03-18T11:29:59.150Z,10.83
2019-03-18T11:30:59.186Z,10.80
2019-03-18T11:31:59.222Z,10.84
2019-03-18T11:32:59.268Z,11.25
2019-03-18T11:33:59.346Z,11.31
2019-03-18T11:34:59.366Z,11.21
2019-03-18T11:35:59.509Z,11.49
2019-03-18T11:36:59.469Z,11.96
2019-03-18T11:37:59.517Z,12.12
2019-03-18T11:38:59.580Z,11.99
2019-03-18T11:39:59.615Z,11.32
2019-03-18T11:40:59.667Z,11.09
2019-03-18T11:41:59.715Z,10.94
2019-03-18T11:42:59.760Z,10.74
2019-03-18T11:43:59.847Z,10.99
2019-03-18T11:44:59.880Z,11.49
2019-03-18T11:45:59.903Z,11.93
2019-03-18T11:46:59.952Z,12.12
2019-03-18T11:48:00.027Z,12.30
2019-03-18T11:49:00.065Z,12.20
2019-03-18T11:50:10.480Z,12.16
2019-03-18T11:51:00.153Z,12.08
2019-03-18T11:52:00.229Z,12.08
2019-03-18T11:53:00.252Z,12.09
2019-03-18T11:54:00.312Z,12.11
2019-03-18T11:55:00.403Z,12.13
2019-03-18T11:56:00.402Z,11.96
2019-03-18T11:57:00.450Z,12.21
2019-03-18T11:58:00.500Z,12.33
2019-03-18T11:59:00.552Z,12.60
2019-03-18T12:00:00.632Z,12.64
2019-03-18T12:01:00.652Z,12.62
2019-03-18T12:02:00.713Z,12.60
2019-03-18T12:03:00.751Z,12.81
2019-03-18T12:04:00.795Z,12.99
2019-03-18T12:05:00.915Z,12.66
2019-03-18T12:06:00.931Z,12.85
2019-03-18T12:07:00.969Z,12.84
2019-03-18T12:08:01.002Z,13.04
2019-03-18T12:09:01.054Z,12.84
2019-03-18T12:10:01.181Z,12.81
2019-03-18T12:11:01.177Z,12.99
2019-03-18T12:12:01.221Z,13.18
2019-03-18T12:13:01.264Z,12.81
2019-03-18T12:14:01.305Z,12.66
2019-03-18T12:15:01.422Z,12.93
2019-03-18T12:16:01.424Z,13.41
2019-03-18T12:17:01.453Z,13.71
2019-03-18T12:18:01.504Z,13.98
2019-03-18T12:19:01.567Z,13.61
2019-03-18T12:20:01.622Z,13.55
2019-03-18T12:21:01.684Z,13.55
2019-03-18T12:22:01.706Z,12.92
2019-03-18T12:23:01.761Z,12.59
2019-03-18T12:24:01.826Z,12.71
2019-03-18T12:25:01.867Z,12.54
2019-03-18T12:26:01.942Z,12.41
2019-03-18T12:27:01.977Z,12.74
2019-03-18T12:28:05.000Z,12.34
2019-03-18T12:29:02.069Z,11.89
2019-03-18T12:30:02.124Z,11.72
2019-03-18T12:31:02.190Z,10.73
2019-03-18T12:32:02.235Z,10.18
2019-03-18T12:33:02.286Z,9.75
2019-03-18T12:34:02.341Z,9.75
2019-03-18T12:35:02.387Z,9.88
2019-03-18T12:36:02.453Z,9.93
2019-03-18T12:37:02.487Z,10.01
2019-03-18T12:38:02.533Z,10.28
2019-03-18T12:39:02.593Z,10.39
2019-03-18T12:40:02.632Z,10.44
2019-03-18T12:41:02.703Z,10.62
2019-03-18T12:42:02.729Z,10.76
2019-03-18T12:43:02.786Z,10.65
2019-03-18T12:44:02.828Z,10.59
2019-03-18T12:45:02.876Z,10.60
2019-03-18T12:46:03.014Z,10.25
2019-03-18T12:47:03.001Z,10.24
2019-03-18T12:48:03.021Z,10.32
2019-03-18T12:49:03.077Z,10.56
2019-03-18T12:50:03.136Z,10.63
2019-03-18T12:51:03.174Z,10.65
2019-03-18T12:52:03.236Z,10.81
2019-03-18T12:53:03.286Z,10.89
2019-03-18T12:54:03.318Z,10.99
2019-03-18T12:55:03.369Z,10.83
2019-03-18T12:56:03.415Z,10.71
2019-03-18T12:57:03.486Z,10.51
2019-03-18T12:58:03.508Z,10.32
2019-03-18T12:59:03.561Z,10.32
2019-03-18T13:00:03.610Z,10.37
2019-03-18T13:01:12.436Z,10.40
2019-03-18T13:02:03.729Z,10.55
2019-03-18T13:03:03.755Z,10.55
2019-03-18T13:04:03.815Z,10.59
2019-03-18T13:05:03.848Z,10.76
2019-03-18T13:06:03.903Z,10.76
2019-03-18T13:07:03.986Z,10.63
2019-03-18T13:08:04.001Z,10.65
2019-03-18T13:09:04.044Z,10.63
2019-03-18T13:10:04.091Z,10.60
2019-03-18T13:11:04.137Z,10.71
2019-03-18T13:12:04.206Z,10.43